createdAt,value
2016-06-10T09:07:51.980Z,670
2016-06-10T09:08:04.777Z,635
2016-06-10T09:09:04.764Z,360
2016-06-10T09:10:04.986Z,260
2016-06-10T09:11:04.645Z,195
2016-06-10T09:12:05.461Z,155
2016-06-10T09:13:04.854Z,150
2016-06-10T09:14:04.686Z,150
2016-06-10T09:15:05.017Z,160
2016-06-10T09:16:04.723Z,170
2016-06-10T09:17:05.492Z,190
2016-06-10T09:18:04.917Z,200
2016-06-10T09:19:04.936Z,200
2016-06-10T09:20:05.376Z,215
2016-06-10T09:21:19.051Z,270
2016-06-10T09:22:04.976Z,330
2016-06-10T09:23:04.963Z,430
2016-06-10T09:24:05.202Z,550
2016-06-10T09:25:05.002Z,670
2016-06-10T09:26:04.864Z,715
2016-06-10T09:27:05.851Z,635
2016-06-10T09:28:05.354Z,630
2016-06-10T09:29:05.075Z,655
2016-06-10T09:30:04.907Z,680
2016-06-10T09:31:05.098Z,680
2016-06-10T09:32:05.101Z,725
2016-06-10T09:33:05.120Z,745
2016-06-10T09:34:04.982Z,660
2016-06-10T09:35:05.157Z,585
2016-06-10T09:36:05.175Z,540
2016-06-10T09:37:05.428Z,500
2016-06-10T09:38:05.416Z,445
2016-06-10T09:39:05.215Z,390
2016-06-10T09:40:05.423Z,310
2016-06-10T09:41:05.238Z,290
2016-06-10T09:42:05.100Z,320
2016-06-10T09:43:06.463Z,355
2016-06-10T09:44:05.263Z,460
2016-06-10T09:45:05.281Z,550
2016-06-10T09:46:05.316Z,565
2016-06-10T09:47:05.303Z,580
2016-06-10T09:48:05.368Z,590
2016-06-10T09:49:05.341Z,625
2016-06-10T09:50:05.204Z,675
2016-06-10T09:51:05.362Z,705
2016-06-10T09:52:05.381Z,700
2016-06-10T09:53:05.431Z,655
2016-06-10T09:54:05.419Z,595
2016-06-10T09:55:05.437Z,500
2016-06-10T09:56:05.440Z,405
2016-06-10T09:57:06.100Z,335
2016-06-10T09:58:06.134Z,275
2016-06-10T09:59:05.496Z,210
2016-06-10T10:00:05.343Z,165
2016-06-10T10:01:05.518Z,130
2016-06-10T10:02:05.536Z,120
2016-06-10T10:03:05.602Z,115
2016-06-10T10:04:05.762Z,135
2016-06-10T10:05:05.578Z,205
2016-06-10T10:06:05.612Z,325
2016-06-10T10:07:19.896Z,465
2016-06-10T10:08:05.649Z,565
2016-06-10T10:09:05.496Z,525
2016-06-10T10:10:05.686Z,630
2016-06-10T10:11:05.658Z,605
2016-06-10T10:12:06.255Z,535
2016-06-10T10:13:05.570Z,480
2016-06-10T10:14:05.714Z,670
2016-06-10T10:15:05.733Z,435
2016-06-10T10:16:20.143Z,1020
2016-06-10T10:17:05.707Z,410
2016-06-10T10:18:05.757Z,755
2016-06-10T10:19:05.495Z,840
2016-06-10T10:20:05.639Z,1220
2016-06-10T10:21:05.642Z,1230
2016-06-10T10:22:05.816Z,1015
2016-06-10T10:23:05.695Z,1600
2016-06-10T10:24:05.854Z,1680
2016-06-10T10:25:05.889Z,1315
2016-06-10T10:26:06.110Z,575
2016-06-10T10:27:07.613Z,500
2016-06-10T10:28:07.585Z,455
2016-06-10T10:29:05.760Z,485
2016-06-10T10:30:05.951Z,460
2016-06-10T10:31:05.969Z,415
2016-06-10T10:32:05.988Z,435
2016-06-10T10:33:06.194Z,495
2016-06-10T10:34:05.995Z,495
2016-06-10T10:35:05.920Z,585
2016-06-10T10:36:06.063Z,635
2016-06-10T10:37:06.051Z,655
2016-06-10T10:38:05.585Z,545
2016-06-10T10:39:06.275Z,580
2016-06-10T10:40:06.107Z,530
2016-06-10T10:41:05.970Z,500
2016-06-10T10:42:05.989Z,445
2016-06-10T10:43:07.148Z,415
2016-06-10T10:44:06.165Z,325
2016-06-10T10:45:06.201Z,275
2016-06-10T10:46:06.047Z,330
2016-06-10T10:47:06.268Z,360
2016-06-10T10:48:06.209Z,345
2016-06-10T10:49:06.055Z,335
2016-06-10T10:50:06.388Z,335
2016-06-10T10:51:06.250Z,325
2016-06-10T10:52:06.237Z,315
2016-06-10T10:53:06.084Z,310
2016-06-10T10:54:06.118Z,305
2016-06-10T10:55:06.403Z,325
2016-06-10T10:56:06.235Z,325
2016-06-10T10:57:06.503Z,330
2016-06-10T10:59:06.681Z,325
2016-06-10T11:00:06.496Z,325
2016-06-10T11:01:06.749Z,325
2016-06-10T11:02:06.736Z,315
2016-06-10T11:03:06.865Z,290
2016-06-10T11:04:06.899Z,240
2016-06-10T11:05:06.449Z,240
2016-06-10T11:06:06.452Z,230
2016-06-10T11:07:06.471Z,240
2016-06-10T11:08:06.505Z,245
2016-06-10T11:09:06.352Z,245
2016-06-10T11:10:06.527Z,240
2016-06-10T11:11:06.749Z,245
2016-06-10T11:12:06.439Z,245
2016-06-10T11:13:07.209Z,250
2016-06-10T11:14:06.601Z,255
2016-06-10T11:15:08.276Z,265
2016-06-10T11:16:07.124Z,280
2016-06-10T11:17:06.627Z,315
2016-06-10T11:18:07.317Z,355
2016-06-10T11:19:06.664Z,380
2016-06-10T11:20:06.683Z,355
2016-06-10T11:21:07.359Z,300
2016-06-10T11:22:06.721Z,265
2016-06-10T11:23:07.254Z,250
2016-06-10T11:24:07.493Z,245
2016-06-10T11:25:07.260Z,245
2016-06-10T11:26:07.264Z,245
2016-06-10T11:27:09.861Z,250
2016-06-10T11:28:07.676Z,255
2016-06-10T11:29:07.883Z,260
2016-06-10T11:30:07.728Z,265
2016-06-10T11:31:07.014Z,265
2016-06-10T11:32:06.720Z,240
2016-06-10T11:33:07.691Z,245
2016-06-10T11:34:06.882Z,240
2016-06-10T11:35:38.544Z,240
2016-06-10T11:36:22.029Z,240
2016-06-10T11:37:07.813Z,250
2016-06-10T11:38:07.441Z,250
2016-06-10T11:39:06.960Z,260
2016-06-10T11:40:07.401Z,270
2016-06-10T11:41:07.997Z,295
2016-06-10T11:42:09.718Z,305
2016-06-10T11:43:08.707Z,315
2016-06-10T11:44:07.459Z,330
2016-06-10T11:45:08.032Z,345
2016-06-10T11:46:07.574Z,360
2016-06-10T11:47:07.211Z,385
2016-06-10T11:48:08.050Z,415
2016-06-10T11:49:07.613Z,430
2016-06-10T11:50:07.366Z,420
2016-06-10T11:51:07.851Z,415
2016-06-10T11:52:08.104Z,430
2016-06-10T11:53:07.449Z,435
2016-06-10T11:54:07.493Z,435
2016-06-10T11:55:07.501Z,415
2016-06-10T11:56:07.509Z,400
2016-06-10T11:57:09.393Z,390
2016-06-10T11:58:08.448Z,365
2016-06-10T11:59:08.299Z,335
2016-06-10T12:00:08.100Z,330
2016-06-10T12:01:07.605Z,315
2016-06-10T12:02:08.470Z,325
2016-06-10T12:03:07.834Z,295
2016-06-10T12:04:07.682Z,305
2016-06-10T12:05:07.716Z,255
2016-06-10T12:06:07.814Z,260
2016-06-10T12:07:07.755Z,245
2016-06-10T12:08:08.212Z,235
2016-06-10T12:09:07.559Z,200
2016-06-10T12:10:09.171Z,195
2016-06-10T12:11:08.269Z,205
2016-06-10T12:12:07.898Z,230
2016-06-10T12:13:08.948Z,225
2016-06-10T12:14:08.061Z,225
2016-06-10T12:15:07.829Z,225
2016-06-10T12:16:08.145Z,220
2016-06-10T12:17:07.991Z,220
2016-06-10T12:19:07.920Z,220
2016-06-10T12:20:08.126Z,215
2016-06-10T12:21:08.176Z,210
2016-06-10T12:22:08.288Z,215
2016-06-10T12:23:08.260Z,215
2016-06-10T12:24:08.311Z,220
2016-06-10T12:25:08.001Z,220
2016-06-10T12:26:08.050Z,225
2016-06-10T12:27:08.037Z,225
2016-06-10T12:28:08.573Z,225
2016-06-10T12:29:08.168Z,230
2016-06-10T12:30:08.079Z,235
2016-06-10T12:31:08.113Z,245
2016-06-10T12:32:08.256Z,240
2016-06-10T12:33:08.555Z,240
2016-06-10T12:34:08.341Z,240
2016-06-10T12:35:08.125Z,240
2016-06-10T12:36:08.175Z,240
2016-06-10T12:37:08.100Z,235
2016-06-10T12:38:08.228Z,240
2016-06-10T12:39:08.232Z,235
2016-06-10T12:40:08.312Z,240
2016-06-10T12:41:08.518Z,230
2016-06-10T12:42:08.427Z,235
2016-06-10T12:43:08.212Z,240
2016-06-10T12:44:08.778Z,240
2016-06-10T12:45:08.375Z,240
2016-06-10T12:46:08.190Z,250
2016-06-10T12:47:08.209Z,250
2016-06-10T12:48:08.587Z,255
2016-06-10T12:49:08.449Z,255
2016-06-10T12:50:08.421Z,245
2016-06-10T12:51:22.347Z,245
2016-06-10T12:52:08.364Z,245
2016-06-10T12:53:09.384Z,245
2016-06-10T12:54:23.027Z,240
2016-06-10T12:55:08.530Z,240
2016-06-10T12:56:09.220Z,240
2016-06-10T12:57:08.849Z,240
2016-06-10T12:58:09.977Z,240
2016-06-10T12:59:09.433Z,240
2016-06-10T13:00:08.577Z,245
2016-06-10T13:01:08.188Z,245
2016-06-10T13:02:10.505Z,240
2016-06-10T13:04:08.605Z,245
2016-06-10T13:05:08.670Z,240
2016-06-10T13:06:08.673Z,240
2016-06-10T13:07:08.693Z,240
2016-06-10T13:08:08.492Z,240
2016-06-10T13:09:08.761Z,235
2016-06-10T13:10:08.279Z,235
2016-06-10T13:11:08.751Z,240
2016-06-10T13:12:11.958Z,240
2016-06-10T13:13:13.147Z,250
2016-06-10T13:14:09.511Z,250
2016-06-10T13:15:09.045Z,250
2016-06-10T13:16:09.017Z,250
2016-06-10T13:17:09.160Z,255
2016-06-10T13:18:09.023Z,255
2016-06-10T13:19:09.276Z,255
2016-06-10T13:20:08.919Z,255
2016-06-10T13:21:09.578Z,255
2016-06-10T13:22:09.161Z,255
2016-06-10T13:23:08.710Z,260
2016-06-10T13:24:08.948Z,250
2016-06-10T13:25:09.013Z,255
2016-06-10T13:26:09.016Z,250
2016-06-10T13:27:09.035Z,255
2016-06-10T13:28:09.788Z,255
2016-06-10T13:29:08.916Z,255
2016-06-10T13:30:09.466Z,255
2016-06-10T13:31:09.469Z,250
2016-06-10T13:32:09.534Z,260
2016-06-10T13:33:09.398Z,255
2016-06-10T13:34:09.135Z,260
2016-06-10T13:35:09.154Z,260
2016-06-10T13:36:09.468Z,260
2016-06-10T13:37:09.285Z,270
2016-06-10T13:38:09.116Z,275
2016-06-10T13:39:23.619Z,290
2016-06-10T13:40:09.200Z,280
2016-06-10T13:41:09.297Z,320
2016-06-10T13:42:09.065Z,385
2016-06-10T13:43:10.287Z,490
2016-06-10T13:44:30.368Z,745
2016-06-10T13:45:09.324Z,840
2016-06-10T13:46:09.312Z,630
2016-06-10T13:47:09.347Z,575
2016-06-10T13:48:09.365Z,725
2016-06-10T13:49:10.243Z,240
2016-06-10T13:50:09.042Z,235
2016-06-10T13:51:23.514Z,270
2016-06-10T13:52:09.736Z,505
2016-06-10T13:53:09.084Z,725
2016-06-10T13:54:23.884Z,380
2016-06-10T13:55:09.480Z,250
2016-06-10T13:56:09.608Z,935
2016-06-10T13:57:09.908Z,930
2016-06-10T13:58:10.380Z,715
2016-06-10T13:59:10.039Z,495
2016-06-10T14:00:24.105Z,395
2016-06-10T14:01:09.656Z,365
2016-06-10T14:02:09.565Z,410
2016-06-10T14:03:09.880Z,530
2016-06-10T14:04:09.821Z,585
2016-06-10T14:05:10.152Z,755
2016-06-10T14:06:09.905Z,940
2016-06-10T14:07:10.002Z,1060
2016-06-10T14:08:09.739Z,1150
2016-06-10T14:09:09.930Z,1205
2016-06-10T14:10:09.933Z,665
2016-06-10T14:11:09.717Z,1160
2016-06-10T14:12:09.798Z,245
2016-06-10T14:13:10.129Z,235
2016-06-10T14:14:10.007Z,230
2016-06-10T14:15:09.869Z,235
2016-06-10T14:16:09.904Z,230
2016-06-10T14:17:24.219Z,235
2016-06-10T14:18:10.394Z,235
2016-06-10T14:19:10.100Z,235
2016-06-10T14:20:10.073Z,230
2016-06-10T14:21:09.920Z,265
2016-06-10T14:22:09.907Z,235
2016-06-10T14:23:09.941Z,945
2016-06-10T14:24:09.944Z,725
2016-06-10T14:25:09.994Z,390
2016-06-10T14:26:09.982Z,275
2016-06-10T14:27:10.047Z,335
2016-06-10T14:28:09.800Z,650
2016-06-10T14:29:10.069Z,1170
2016-06-10T14:30:10.337Z,1225
2016-06-10T14:31:10.482Z,1095
2016-06-10T14:32:10.438Z,1270
2016-06-10T14:33:10.144Z,1280
2016-06-10T14:35:10.400Z,1340
2016-06-10T14:36:10.356Z,1310
2016-06-10T14:37:10.187Z,1210
2016-06-10T14:38:10.503Z,1295
2016-06-10T14:39:10.428Z,1260
2016-06-10T14:40:10.493Z,1215
2016-06-10T14:41:10.685Z,995
2016-06-10T14:42:10.516Z,485
2016-06-10T14:43:10.206Z,585
2016-06-10T14:44:11.600Z,330
2016-06-10T14:45:10.556Z,1075
2016-06-10T14:46:23.856Z,260
2016-06-10T14:47:10.546Z,250
2016-06-10T14:48:10.409Z,465
2016-06-10T14:49:10.615Z,470
2016-06-10T14:50:10.384Z,365
2016-06-10T14:51:10.168Z,280
2016-06-10T14:52:10.499Z,315
2016-06-10T14:54:10.552Z,275
2016-06-10T14:55:10.572Z,270
2016-06-10T14:56:10.512Z,260
2016-06-10T14:57:10.593Z,240
2016-06-10T14:58:10.439Z,245
2016-06-10T14:59:11.568Z,245
2016-06-10T15:00:24.133Z,245
2016-06-10T15:01:24.715Z,260
2016-06-10T15:02:24.718Z,250
2016-06-10T15:04:10.645Z,250
2016-06-10T15:05:10.524Z,400
2016-06-10T15:06:10.667Z,310
2016-06-10T15:07:10.701Z,625
2016-06-10T15:08:10.251Z,585
2016-06-10T15:09:10.942Z,500
2016-06-10T15:10:10.742Z,480
2016-06-10T15:11:11.870Z,490
2016-06-10T15:12:11.264Z,490
2016-06-10T15:13:11.033Z,470
2016-06-10T15:14:11.020Z,445
2016-06-10T15:15:10.789Z,405
2016-06-10T15:16:10.807Z,365
2016-06-10T15:17:10.889Z,330
2016-06-10T15:18:24.938Z,290
2016-06-10T15:19:10.863Z,275
2016-06-10T15:20:10.882Z,265
2016-06-10T15:21:10.995Z,245
2016-06-10T15:22:11.122Z,225
2016-06-10T15:23:10.922Z,225
2016-06-10T15:24:10.519Z,225
2016-06-10T15:25:10.991Z,230
2016-06-10T15:26:11.307Z,225
2016-06-10T15:27:11.482Z,220
2016-06-10T15:28:11.016Z,220
2016-06-10T15:29:11.066Z,220
2016-06-10T15:30:11.288Z,215
2016-06-10T15:31:11.103Z,215
2016-06-10T15:32:11.481Z,220
2016-06-10T15:33:11.142Z,220
2016-06-10T15:34:10.675Z,220
2016-06-10T15:35:11.116Z,220
2016-06-10T15:36:11.150Z,215
2016-06-10T15:37:11.637Z,210
2016-06-10T15:38:11.031Z,210
2016-06-10T15:39:11.410Z,205
2016-06-10T15:40:11.412Z,205
2016-06-10T15:41:12.509Z,205
2016-06-10T15:42:11.716Z,205
2016-06-10T15:43:11.265Z,205
2016-06-10T15:44:11.284Z,205
2016-06-10T15:45:11.443Z,210
2016-06-10T15:46:11.321Z,205
2016-06-10T15:47:11.388Z,205
2016-06-10T15:48:11.344Z,205
2016-06-10T15:49:11.846Z,210
2016-06-10T15:50:11.569Z,220
2016-06-10T15:51:11.289Z,205
2016-06-10T15:52:11.450Z,200
2016-06-10T15:53:11.608Z,205
2016-06-10T15:54:11.643Z,205
2016-06-10T15:55:11.302Z,200
2016-06-10T15:56:11.493Z,195
2016-06-10T15:57:12.418Z,195
2016-06-10T15:58:11.499Z,195
2016-06-10T15:59:11.518Z,190
2016-06-10T16:00:11.725Z,195
2016-06-10T16:01:11.570Z,170
2016-06-10T16:02:11.105Z,190
2016-06-10T16:03:11.592Z,190
2016-06-10T16:04:11.579Z,190
2016-06-10T16:05:11.615Z,190
2016-06-10T16:06:11.617Z,190
2016-06-10T16:07:11.621Z,185
2016-06-10T16:08:11.655Z,180
2016-06-10T16:09:11.658Z,170
2016-06-10T16:10:11.911Z,165
2016-06-10T16:11:11.742Z,160
2016-06-10T16:12:11.776Z,155
2016-06-10T16:13:12.108Z,155
2016-06-10T16:14:11.751Z,155
2016-06-10T16:15:11.301Z,160
2016-06-10T16:16:11.788Z,165
2016-06-10T16:17:12.011Z,170
2016-06-10T16:18:11.997Z,175
2016-06-10T16:19:11.844Z,175
2016-06-10T16:20:12.082Z,175
2016-06-10T16:21:11.851Z,170
2016-06-10T16:22:10.932Z,170
2016-06-10T16:23:11.920Z,165
2016-06-10T16:24:11.907Z,165
2016-06-10T16:25:11.910Z,155
2016-06-10T16:26:12.569Z,155
2016-06-10T16:27:12.025Z,150
2016-06-10T16:28:11.950Z,150
2016-06-10T16:29:11.985Z,145
2016-06-10T16:30:11.972Z,145
2016-06-10T16:31:11.835Z,145
2016-06-10T16:32:11.526Z,145
2016-06-10T16:33:12.060Z,145
2016-06-10T16:34:12.047Z,140
2016-06-10T16:35:12.050Z,140
2016-06-10T16:36:12.085Z,140
2016-06-10T16:37:12.150Z,140
2016-06-10T16:38:12.263Z,140
2016-06-10T16:39:12.156Z,140
2016-06-10T16:40:12.144Z,145
2016-06-10T16:41:12.210Z,150
2016-06-10T16:42:12.087Z,150
2016-06-10T16:43:12.216Z,150
2016-06-10T16:44:12.172Z,145
2016-06-10T16:45:26.471Z,140
2016-06-10T16:46:12.272Z,140
2016-06-10T16:47:12.415Z,145
2016-06-10T16:48:12.247Z,145
2016-06-10T16:49:12.250Z,145
2016-06-10T16:50:12.268Z,145
2016-06-10T16:51:12.490Z,140
2016-06-10T16:52:12.321Z,140
2016-06-10T16:53:26.372Z,135
2016-06-10T16:54:12.438Z,130
2016-06-10T16:55:12.330Z,130
2016-06-10T16:56:12.350Z,125
2016-06-10T16:57:13.274Z,130
2016-06-10T16:58:12.449Z,130
2016-06-10T16:59:12.436Z,130
2016-06-10T17:00:12.440Z,130
2016-06-10T17:01:12.427Z,130
2016-06-10T17:02:12.493Z,130
2016-06-10T17:03:12.449Z,130
2016-06-10T17:04:12.468Z,125
2016-06-10T17:05:12.877Z,120
2016-06-10T17:06:11.974Z,115
2016-06-10T17:07:12.477Z,120
2016-06-10T17:08:12.511Z,125
2016-06-10T17:09:12.514Z,125
2016-06-10T17:10:12.579Z,130
2016-06-10T17:11:12.755Z,130
2016-06-10T17:12:12.601Z,130
2016-06-10T17:13:13.386Z,130
2016-06-10T17:14:13.045Z,125
2016-06-10T17:15:12.642Z,115
2016-06-10T17:16:12.130Z,105
2016-06-10T17:17:26.726Z,105
2016-06-10T17:18:12.948Z,105
2016-06-10T17:19:12.748Z,115
2016-06-10T17:20:12.751Z,120
2016-06-10T17:21:13.114Z,120
2016-06-10T17:22:12.726Z,125
2016-06-10T17:23:12.917Z,130
2016-06-10T17:24:12.717Z,130
2016-06-10T17:25:12.735Z,130
2016-06-10T17:26:12.753Z,130
2016-06-10T17:27:13.553Z,130
2016-06-10T17:28:13.776Z,130
2016-06-10T17:29:13.419Z,125
2016-06-10T17:30:13.782Z,130
2016-06-10T17:31:12.926Z,130
2016-06-10T17:32:26.929Z,125
2016-06-10T17:33:12.886Z,125
2016-06-10T17:34:12.872Z,125
2016-06-10T17:35:12.938Z,120
2016-06-10T17:36:13.081Z,110
2016-06-10T17:37:12.912Z,110
2016-06-10T17:38:12.900Z,110
2016-06-10T17:39:13.357Z,110
2016-06-10T17:40:17.375Z,105
2016-06-10T17:41:12.660Z,105
2016-06-10T17:42:13.005Z,105
2016-06-10T17:43:13.322Z,105
2016-06-10T17:44:13.059Z,105
2016-06-10T17:45:12.781Z,105
2016-06-10T17:46:15.237Z,110
2016-06-10T17:47:13.038Z,115
2016-06-10T17:48:13.384Z,115
2016-06-10T17:49:13.902Z,115
2016-06-10T17:50:13.249Z,115
2016-06-10T17:51:17.409Z,110
2016-06-10T17:52:14.552Z,105
2016-06-10T17:53:14.790Z,105
2016-06-10T17:54:13.089Z,95
2016-06-10T17:55:13.405Z,90
2016-06-10T17:56:19.706Z,100
2016-06-10T17:57:14.662Z,100
2016-06-10T17:58:15.321Z,100
2016-06-10T17:59:13.183Z,100
2016-06-10T18:00:13.609Z,105
2016-06-10T18:01:14.549Z,105
2016-06-10T18:02:13.677Z,100
2016-06-10T18:03:41.603Z,100
2016-06-10T18:04:13.667Z,100
2016-06-10T18:05:14.326Z,100
2016-06-10T18:06:14.002Z,100
2016-06-10T18:07:14.332Z,100
2016-06-10T18:08:13.540Z,100
2016-06-10T18:09:13.730Z,100
2016-06-10T18:10:13.436Z,100
2016-06-10T18:11:13.986Z,100
2016-06-10T18:12:15.317Z,105
2016-06-10T18:13:14.351Z,95
2016-06-10T18:14:13.605Z,95
2016-06-10T18:15:13.654Z,90
2016-06-10T18:16:14.189Z,85
2016-06-10T18:17:13.895Z,80
2016-06-10T18:19:13.698Z,75
2016-06-10T18:20:13.639Z,75
2016-06-10T18:21:27.985Z,75
2016-06-10T18:24:13.292Z,70
2016-06-10T18:25:13.451Z,75
2016-06-10T18:26:13.563Z,70
2016-06-10T18:27:13.644Z,70
2016-06-10T18:28:15.538Z,65
2016-06-10T18:29:27.650Z,65
2016-06-10T18:30:14.403Z,60
2016-06-10T18:31:13.563Z,60
2016-06-10T18:32:13.848Z,55
2016-06-10T18:33:14.273Z,55
2016-06-10T18:34:13.682Z,55
2016-06-10T18:35:28.044Z,50
2016-06-10T18:36:13.859Z,50
2016-06-10T18:38:14.038Z,50
2016-06-10T18:39:13.931Z,50
2016-06-10T18:40:14.153Z,50
2016-06-10T18:42:14.831Z,45
2016-06-10T18:49:25.244Z,30
2016-06-10T18:49:38.291Z,30
2016-06-10T18:50:38.278Z,30
2016-06-10T18:51:38.375Z,30
2016-06-10T18:52:38.300Z,30
2016-06-10T18:53:52.209Z,30
2016-06-10T18:54:38.291Z,25
2016-06-10T18:55:38.434Z,25
2016-06-10T18:56:38.327Z,25
2016-06-10T18:57:53.174Z,25
2016-06-10T18:59:37.758Z,25
2016-06-10T19:00:38.825Z,20
2016-06-10T19:01:39.374Z,20
2016-06-10T19:02:38.423Z,20
2016-06-10T19:03:38.317Z,15
2016-06-10T19:04:38.962Z,15
2016-06-10T19:05:38.308Z,15
2016-06-10T19:06:38.139Z,15
2016-06-10T19:07:38.408Z,10
2016-06-10T19:09:52.742Z,10
2016-06-10T19:10:38.605Z,10
2016-06-10T19:11:38.920Z,10
2016-06-10T19:12:40.174Z,10
2016-06-10T19:13:39.426Z,10
2016-06-10T19:14:38.898Z,5
2016-06-10T19:15:38.839Z,5
2016-06-10T19:16:38.436Z,5
2016-06-10T19:17:38.517Z,5
2016-06-10T19:18:38.536Z,5
2016-06-10T19:19:38.617Z,5
2016-06-10T19:20:38.511Z,5
2016-06-10T19:21:38.545Z,5
2016-06-10T19:22:38.470Z,5
2016-06-10T19:23:38.520Z,5
2016-06-10T19:24:38.804Z,5
2016-06-10T19:25:38.558Z,5
2016-06-10T19:26:38.733Z,0
2016-06-10T19:27:38.703Z,0
2016-06-10T19:28:39.425Z,0
2016-06-10T19:29:38.617Z,0
2016-06-10T19:30:38.604Z,0
2016-06-10T19:31:38.591Z,0
2016-06-10T19:32:39.032Z,0
2016-06-10T19:33:38.582Z,0
2016-06-10T19:34:38.616Z,0
2016-06-10T19:35:38.588Z,0
2016-06-10T19:36:38.841Z,0
2016-06-10T19:37:38.875Z,0
2016-06-10T19:38:38.692Z,0
2016-06-10T19:39:39.084Z,0
2016-06-10T19:40:38.526Z,0
2016-06-10T19:41:38.871Z,0
2016-06-10T19:42:39.343Z,0
2016-06-10T19:43:39.019Z,0
2016-06-10T19:44:38.788Z,0
2016-06-10T19:45:39.180Z,0
2016-06-10T19:46:38.966Z,0
2016-06-10T19:47:38.719Z,0
2016-06-10T19:49:39.193Z,0
2016-06-10T19:50:39.212Z,0
2016-06-10T19:51:39.668Z,0
2016-06-10T19:52:39.063Z,0
2016-06-10T19:53:38.971Z,0
2016-06-10T19:54:38.772Z,0
2016-06-10T19:55:38.822Z,0
2016-06-10T19:56:39.011Z,0
2016-06-10T19:57:39.500Z,0
2016-06-10T19:58:53.330Z,0
2016-06-10T19:59:38.849Z,0
2016-06-10T20:00:38.851Z,0
2016-06-10T20:01:38.871Z,0
2016-06-10T20:02:39.000Z,0
2016-06-10T20:03:39.252Z,0
2016-06-10T20:04:39.506Z,0
2016-06-10T20:05:38.899Z,0
2016-06-10T20:06:39.308Z,0
2016-06-10T20:07:38.781Z,0
2016-06-10T20:08:53.189Z,0
2016-06-10T20:09:39.130Z,0
2016-06-10T20:10:38.914Z,0
2016-06-10T20:11:39.418Z,0
2016-06-10T20:12:40.374Z,0
2016-06-10T20:13:39.392Z,0
2016-06-10T20:14:39.442Z,0
2016-06-10T20:15:38.992Z,0
2016-06-10T20:16:39.433Z,0
2016-06-10T20:17:39.155Z,0
2016-06-10T20:18:53.626Z,0
2016-06-10T20:19:39.208Z,0
2016-06-10T20:20:39.413Z,0
2016-06-10T20:21:39.105Z,0
2016-06-10T20:22:39.467Z,0
2016-06-10T20:23:39.297Z,0
2016-06-10T20:24:53.551Z,0
2016-06-10T20:25:39.616Z,0
2016-06-10T20:26:39.667Z,0
2016-06-10T20:27:40.717Z,0
2016-06-10T20:28:40.845Z,0
2016-06-10T20:29:53.488Z,0
2016-06-10T20:30:39.444Z,0
2016-06-10T20:31:39.354Z,0
2016-06-10T20:32:39.623Z,0
2016-06-10T20:33:39.422Z,0
2016-06-10T20:34:39.457Z,0
2016-06-10T20:35:39.178Z,0
2016-06-10T20:36:39.290Z,0
2016-06-10T20:37:39.543Z,0
2016-06-10T20:38:53.219Z,0
2016-06-10T20:39:39.660Z,0
2016-06-10T20:40:39.413Z,0
2016-06-10T20:41:39.415Z,0
2016-06-10T20:42:40.825Z,0
2016-06-10T20:43:40.687Z,0
2016-06-10T20:44:39.456Z,0
2016-06-10T20:45:39.381Z,0
2016-06-10T20:46:39.681Z,0
2016-06-10T20:47:39.543Z,0
2016-06-10T20:48:39.547Z,0
2016-06-10T20:49:39.580Z,0
2016-06-10T20:50:39.516Z,0
2016-06-10T20:51:39.387Z,0
2016-06-10T20:52:39.602Z,0
2016-06-10T20:53:39.692Z,0
2016-06-10T20:54:39.828Z,0
2016-06-10T20:55:53.699Z,0
2016-06-10T20:56:39.872Z,0
2016-06-10T20:57:39.889Z,0
2016-06-10T20:58:40.189Z,0
2016-06-10T20:59:39.768Z,0
2016-06-10T21:00:40.218Z,0
2016-06-10T21:01:39.709Z,0
2016-06-10T21:02:39.842Z,0
2016-06-10T21:03:39.882Z,0
2016-06-10T21:04:40.030Z,0
2016-06-10T21:05:40.302Z,0
2016-06-10T21:06:39.838Z,0
2016-06-10T21:07:39.406Z,0
2016-06-10T21:08:39.802Z,0
2016-06-10T21:09:40.104Z,0
2016-06-10T21:10:39.920Z,0
2016-06-10T21:11:39.579Z,0
2016-06-10T21:12:39.975Z,0
2016-06-10T21:13:40.370Z,0
2016-06-10T21:14:39.810Z,0
2016-06-10T21:15:40.016Z,0
2016-06-10T21:16:39.427Z,0
2016-06-10T21:17:39.586Z,0
2016-06-10T21:18:40.121Z,0
2016-06-10T21:19:39.859Z,0
2016-06-10T21:20:39.831Z,0
2016-06-10T21:21:39.850Z,0
2016-06-10T21:22:39.884Z,0
2016-06-10T21:23:39.903Z,0
2016-06-10T21:24:39.860Z,0
2016-06-10T21:25:40.299Z,0
2016-06-10T21:26:39.927Z,0
2016-06-10T21:27:40.102Z,0
2016-06-10T21:28:40.433Z,0
2016-06-10T21:29:39.922Z,0
2016-06-10T21:30:39.908Z,0
2016-06-10T21:31:39.928Z,0
2016-06-10T21:32:39.945Z,0
2016-06-10T21:33:39.809Z,0
2016-06-10T21:34:39.968Z,0
2016-06-10T21:35:40.612Z,0
2016-06-10T21:36:40.130Z,0
2016-06-10T21:37:40.039Z,0
2016-06-10T21:38:40.089Z,0
2016-06-10T21:39:40.328Z,0
2016-06-10T21:40:41.689Z,0
2016-06-10T21:41:40.068Z,0
2016-06-10T21:42:41.648Z,0
2016-06-10T21:43:45.090Z,0
2016-06-10T21:44:40.623Z,0
2016-06-10T21:45:40.783Z,0
2016-06-10T21:46:40.114Z,0
2016-06-10T21:47:40.085Z,0
2016-06-10T21:48:41.167Z,0
2016-06-10T21:49:41.358Z,0
2016-06-10T21:50:40.189Z,0
2016-06-10T21:51:40.301Z,0
2016-06-10T21:52:40.367Z,0
2016-06-10T21:53:40.120Z,0
2016-06-10T21:54:40.295Z,0
2016-06-10T21:55:40.002Z,0
2016-06-10T21:56:40.380Z,0
2016-06-10T21:57:45.366Z,0
2016-06-10T21:58:40.400Z,0
2016-06-10T21:59:40.185Z,0
2016-06-10T22:00:39.720Z,0
2016-06-10T22:01:40.192Z,0
2016-06-10T22:02:40.257Z,0
2016-06-10T22:03:39.776Z,0
2016-06-10T22:04:40.466Z,0
2016-06-10T22:05:40.455Z,0
2016-06-10T22:06:54.332Z,0
2016-06-10T22:07:40.711Z,0
2016-06-10T22:08:40.306Z,0
2016-06-10T22:09:54.357Z,0
2016-06-10T22:10:40.562Z,0
2016-06-10T22:11:39.832Z,0
2016-06-10T22:12:40.537Z,0
2016-06-10T22:13:40.619Z,0
2016-06-10T22:14:40.310Z,0
2016-06-10T22:15:40.531Z,0
2016-06-10T22:16:40.316Z,0
2016-06-10T22:17:40.569Z,0
2016-06-10T22:18:40.572Z,0
2016-06-10T22:19:40.622Z,0
2016-06-10T22:20:40.218Z,0
2016-06-10T22:21:40.207Z,0
2016-06-10T22:22:40.568Z,0
2016-06-10T22:23:40.384Z,0
2016-06-10T22:24:40.606Z,0
2016-06-10T22:25:40.406Z,0
2016-06-10T22:26:40.425Z,0
2016-06-10T22:27:40.411Z,0
2016-06-10T22:28:40.509Z,0
2016-06-10T22:29:40.356Z,0
2016-06-10T22:30:40.437Z,0
2016-06-10T22:31:40.643Z,0
2016-06-10T22:32:40.944Z,0
2016-06-10T22:33:40.696Z,0
2016-06-10T22:34:40.496Z,0
2016-06-10T22:35:40.500Z,0
2016-06-10T22:36:40.737Z,0
2016-06-10T22:37:40.521Z,0
2016-06-10T22:38:40.383Z,0
2016-06-10T22:39:40.496Z,0
2016-06-10T22:40:40.499Z,0
2016-06-10T22:41:40.533Z,0
2016-06-10T22:42:40.535Z,0
2016-06-10T22:43:40.586Z,0
2016-06-10T22:44:40.558Z,0
2016-06-10T22:45:40.545Z,0
2016-06-10T22:46:40.595Z,0
2016-06-10T22:47:54.677Z,0
2016-06-10T22:48:40.836Z,0
2016-06-10T22:49:40.620Z,0
2016-06-10T22:50:40.623Z,0
2016-06-10T22:51:40.814Z,0
2016-06-10T22:52:40.629Z,0
2016-06-10T22:53:40.836Z,0
2016-06-10T22:54:40.636Z,0
2016-06-10T22:55:40.670Z,0
2016-06-10T22:56:40.673Z,0
2016-06-10T22:57:40.864Z,0
2016-06-10T22:58:41.039Z,0
2016-06-10T22:59:40.541Z,0
2016-06-10T23:00:40.685Z,0
2016-06-10T23:01:40.922Z,0
2016-06-10T23:02:40.692Z,0
2016-06-10T23:03:40.742Z,0
2016-06-10T23:04:40.728Z,0
2016-06-10T23:05:40.716Z,0
2016-06-10T23:06:41.001Z,0
2016-06-10T23:07:41.160Z,0
2016-06-10T23:08:40.693Z,0
2016-06-10T23:09:40.760Z,0
2016-06-10T23:10:40.607Z,0
2016-06-10T23:11:40.328Z,0
2016-06-10T23:12:41.003Z,0
2016-06-10T23:13:40.726Z,0
2016-06-10T23:14:40.806Z,0
2016-06-10T23:15:40.794Z,0
2016-06-10T23:16:40.797Z,0
2016-06-10T23:17:40.832Z,0
2016-06-10T23:18:40.896Z,0
2016-06-10T23:19:40.681Z,0
2016-06-10T23:20:40.888Z,0
2016-06-10T23:21:40.875Z,0
2016-06-10T23:22:41.284Z,0
2016-06-10T23:23:41.100Z,0
2016-06-10T23:24:41.087Z,0
2016-06-10T23:25:40.903Z,0
2016-06-10T23:26:40.874Z,0
2016-06-10T23:27:40.924Z,0
2016-06-10T23:28:41.819Z,0
2016-06-10T23:29:41.150Z,0
2016-06-10T23:30:40.933Z,0